createdAt,value
2019-06-15T00:01:28.363Z,4.23
2019-06-15T00:03:32.148Z,3.87
2019-06-15T00:05:36.059Z,3.90
2019-06-15T00:07:39.946Z,4.47
2019-06-15T00:09:43.750Z,3.83
2019-06-15T00:11:47.662Z,4.53
2019-06-15T00:13:51.471Z,4.50
2019-06-15T00:15:55.260Z,3.90
2019-06-15T00:17:59.174Z,4.07
2019-06-15T00:20:02.771Z,4.20
2019-06-15T00:22:06.595Z,4.47
2019-06-15T00:24:10.476Z,3.93
2019-06-15T00:26:14.396Z,4.10
2019-06-15T00:28:18.373Z,3.80
2019-06-15T00:30:22.188Z,4.07
2019-06-15T00:32:26.037Z,3.90
2019-06-15T00:34:29.524Z,3.70
2019-06-15T00:36:33.438Z,3.30
2019-06-15T00:38:36.921Z,3.20
2019-06-15T00:40:40.803Z,3.50
2019-06-15T00:42:44.704Z,3.50
2019-06-15T00:44:48.604Z,4.43
2019-06-15T00:46:52.511Z,4.00
2019-06-15T00:48:56.332Z,3.83
2019-06-15T00:50:59.859Z,3.80
2019-06-15T00:53:03.728Z,3.40
2019-06-15T00:55:07.925Z,3.67
2019-06-15T00:57:11.850Z,4.10
2019-06-15T00:59:15.735Z,4.37
2019-06-15T01:01:19.554Z,5.10
2019-06-15T01:03:23.108Z,3.80
2019-06-15T01:05:26.952Z,4.27
2019-06-15T01:07:30.476Z,4.70
2019-06-15T01:09:34.342Z,4.13
2019-06-15T01:11:38.248Z,3.63
2019-06-15T01:13:42.056Z,3.47
2019-06-15T01:15:45.591Z,3.50
2019-06-15T01:17:49.466Z,3.33
2019-06-15T01:19:52.984Z,3.60
2019-06-15T01:21:56.862Z,3.70
2019-06-15T01:24:00.390Z,3.70
2019-06-15T01:26:03.909Z,3.80
2019-06-15T01:28:07.465Z,3.70
2019-06-15T01:30:13.405Z,3.70
2019-06-15T01:32:17.022Z,3.67
2019-06-15T01:34:20.900Z,3.63
2019-06-15T01:36:24.720Z,3.60
2019-06-15T01:38:28.612Z,3.90
2019-06-15T01:40:32.526Z,3.30
2019-06-15T01:42:36.424Z,3.23
2019-06-15T01:44:40.254Z,3.40
2019-06-15T01:46:44.140Z,3.50
2019-06-15T01:48:47.949Z,3.27
2019-06-15T01:50:51.746Z,3.27
2019-06-15T01:52:55.304Z,3.77
2019-06-15T01:54:58.825Z,3.37
2019-06-15T01:57:02.646Z,3.40
2019-06-15T01:59:06.613Z,3.33
2019-06-15T02:01:10.547Z,3.10
2019-06-15T02:03:14.502Z,3.43
2019-06-15T02:05:18.636Z,3.50
2019-06-15T02:07:22.482Z,3.43
2019-06-15T02:09:26.366Z,3.87
2019-06-15T02:11:30.196Z,3.30
2019-06-15T02:13:34.104Z,3.47
2019-06-15T02:15:37.638Z,3.00
2019-06-15T02:17:41.494Z,3.47
2019-06-15T02:19:45.010Z,3.33
2019-06-15T02:21:48.894Z,3.87
2019-06-15T02:23:52.802Z,3.70
2019-06-15T02:25:56.703Z,4.23
2019-06-15T02:28:00.700Z,3.07
2019-06-15T02:30:06.067Z,3.43
2019-06-15T02:32:09.946Z,3.70
2019-06-15T02:34:13.863Z,4.13
2019-06-15T02:36:17.771Z,3.30
2019-06-15T02:38:21.298Z,3.43
2019-06-15T02:40:25.373Z,3.80
2019-06-15T02:42:29.270Z,3.77
2019-06-15T02:44:33.169Z,3.67
2019-06-15T02:46:36.723Z,3.50
2019-06-15T02:48:40.584Z,3.97
2019-06-15T02:50:44.487Z,3.30
2019-06-15T02:52:48.390Z,3.80
2019-06-15T02:54:51.905Z,4.20
2019-06-15T02:56:55.478Z,4.00
2019-06-15T02:58:59.084Z,3.90
2019-06-15T03:01:05.874Z,4.40
2019-06-15T03:03:09.663Z,4.00
2019-06-15T03:05:13.782Z,3.80
2019-06-15T03:07:17.676Z,5.40
2019-06-15T03:09:21.684Z,4.77
2019-06-15T03:11:25.697Z,4.90
2019-06-15T03:13:30.131Z,5.40
2019-06-15T03:15:33.680Z,5.30
2019-06-15T03:17:37.193Z,4.70
2019-06-15T03:19:41.123Z,5.17
2019-06-15T03:21:45.000Z,4.93
2019-06-15T03:23:48.808Z,5.43
2019-06-15T03:26:04.622Z,6.00
2019-06-15T03:27:57.949Z,6.87
2019-06-15T03:30:02.010Z,6.47
2019-06-15T03:32:05.975Z,5.77
2019-06-15T03:34:09.871Z,6.77
2019-06-15T03:36:13.692Z,6.40
2019-06-15T03:38:17.218Z,5.80
2019-06-15T03:40:21.086Z,5.97
2019-06-15T03:42:24.992Z,6.37
2019-06-15T03:44:28.525Z,5.10
2019-06-15T03:46:32.162Z,6.40
2019-06-15T03:48:35.986Z,5.23
2019-06-15T03:50:39.878Z,7.30
2019-06-15T03:52:43.788Z,6.50
2019-06-15T03:54:47.324Z,6.73
2019-06-15T03:56:51.198Z,7.20
2019-06-15T03:58:54.736Z,6.63
2019-06-15T04:01:09.934Z,6.20
2019-06-15T04:03:13.864Z,6.90
2019-06-15T04:05:17.391Z,6.60
2019-06-15T04:07:21.273Z,6.43
2019-06-15T04:09:25.180Z,6.17
2019-06-15T04:11:28.709Z,5.50
2019-06-15T04:13:32.246Z,5.80
2019-06-15T04:15:35.796Z,5.60
2019-06-15T04:17:39.319Z,5.47
2019-06-15T04:19:43.166Z,6.27
2019-06-15T04:21:47.064Z,5.90
2019-06-15T04:23:50.995Z,5.30
2019-06-15T04:25:54.786Z,6.00
2019-06-15T04:27:58.676Z,5.80
2019-06-15T04:30:02.242Z,5.03
2019-06-15T04:32:06.176Z,6.13
2019-06-15T04:34:10.395Z,6.00
2019-06-15T04:36:14.215Z,5.93
2019-06-15T04:38:18.106Z,6.40
2019-06-15T04:40:21.626Z,6.27
2019-06-15T04:42:25.506Z,6.77
2019-06-15T04:44:29.415Z,5.50
2019-06-15T04:46:33.226Z,6.53
2019-06-15T04:48:37.124Z,7.30
2019-06-15T04:50:40.661Z,5.70
2019-06-15T04:52:44.518Z,5.30
2019-06-15T04:54:48.326Z,6.03
2019-06-15T04:56:51.873Z,6.47
2019-06-15T04:58:55.736Z,6.50
2019-06-15T05:00:59.284Z,6.47
2019-06-15T05:03:02.836Z,6.57
2019-06-15T05:05:07.960Z,7.03
2019-06-15T05:07:11.489Z,6.27
2019-06-15T05:09:15.047Z,5.20
2019-06-15T05:11:18.851Z,5.93
2019-06-15T05:13:22.782Z,6.13
2019-06-15T05:15:26.274Z,5.27
2019-06-15T05:17:30.166Z,5.70
2019-06-15T05:19:34.063Z,5.17
2019-06-15T05:21:37.874Z,5.40
2019-06-15T05:23:41.408Z,5.20
2019-06-15T05:25:45.241Z,5.30
2019-06-15T05:27:49.088Z,5.27
2019-06-15T05:29:52.617Z,5.03
2019-06-15T05:31:56.478Z,5.47
2019-06-15T05:34:00.006Z,5.33
2019-06-15T05:36:03.894Z,5.27
2019-06-15T05:38:07.790Z,5.50
2019-06-15T05:40:11.686Z,4.80
2019-06-15T05:42:15.602Z,6.30
2019-06-15T05:44:19.498Z,5.00
2019-06-15T05:46:23.396Z,5.00
2019-06-15T05:48:27.308Z,5.60
2019-06-15T05:50:31.236Z,5.10
2019-06-15T05:52:35.123Z,4.57
2019-06-15T05:54:39.026Z,5.07
2019-06-15T05:56:43.244Z,5.78
2019-06-15T05:58:47.153Z,5.00
2019-06-15T06:00:51.062Z,5.70
2019-06-15T06:02:54.960Z,6.70
2019-06-15T06:04:58.856Z,6.87
2019-06-15T06:07:02.762Z,8.60
2019-06-15T06:09:07.768Z,9.53
2019-06-15T06:11:11.607Z,11.07
2019-06-15T06:13:15.512Z,10.93
2019-06-15T06:15:19.534Z,11.67
2019-06-15T06:17:23.058Z,11.73
2019-06-15T06:19:26.613Z,11.87
2019-06-15T06:21:30.512Z,11.47
2019-06-15T06:23:34.084Z,11.00
2019-06-15T06:25:37.917Z,10.33
2019-06-15T06:27:41.822Z,11.70
2019-06-15T06:29:45.718Z,10.37
2019-06-15T06:31:49.528Z,10.93
2019-06-15T06:33:53.069Z,11.53
2019-06-15T06:35:56.958Z,10.40
2019-06-15T06:38:00.475Z,10.07
2019-06-15T06:40:07.713Z,9.07
2019-06-15T06:42:11.275Z,9.23
2019-06-15T06:44:14.822Z,9.00
2019-06-15T06:46:18.703Z,7.37
2019-06-15T06:48:22.515Z,7.80
2019-06-15T06:50:26.825Z,6.30
2019-06-15T06:52:30.740Z,6.63
2019-06-15T06:54:34.642Z,5.83
2019-06-15T06:56:38.536Z,5.40
2019-06-15T06:58:42.448Z,5.03
2019-06-15T07:00:46.362Z,4.80
2019-06-15T07:02:50.257Z,4.50
2019-06-15T07:04:54.166Z,3.93
2019-06-15T07:06:58.073Z,4.63
2019-06-15T07:09:01.990Z,4.73
2019-06-15T07:11:05.876Z,4.40
2019-06-15T07:13:09.399Z,4.50
2019-06-15T07:15:13.417Z,4.50
2019-06-15T07:17:16.977Z,4.20
2019-06-15T07:19:20.786Z,4.03
2019-06-15T07:21:24.645Z,3.37
2019-06-15T07:23:31.769Z,3.97
2019-06-15T07:25:33.745Z,3.87
2019-06-15T07:27:37.359Z,3.80
2019-06-15T07:29:41.366Z,3.80
2019-06-15T07:31:45.338Z,3.10
2019-06-15T07:33:49.145Z,3.27
2019-06-15T07:35:53.049Z,3.10
2019-06-15T07:37:56.970Z,3.57
2019-06-15T07:40:00.561Z,2.83
2019-06-15T07:42:04.185Z,2.67
2019-06-15T07:44:08.060Z,2.60
2019-06-15T07:46:11.854Z,3.13
2019-06-15T07:48:15.765Z,5.83
2019-06-15T07:50:19.668Z,20.27
2019-06-15T07:52:23.574Z,13.73
2019-06-15T07:54:27.485Z,8.37
2019-06-15T07:56:31.390Z,6.03
2019-06-15T07:58:34.911Z,2.07
2019-06-15T08:00:38.795Z,3.70
2019-06-15T08:02:42.331Z,3.00
2019-06-15T08:04:45.878Z,3.10
2019-06-15T08:06:49.979Z,2.87
2019-06-15T08:08:53.498Z,2.80
2019-06-15T08:10:57.124Z,2.27
2019-06-15T08:13:00.997Z,2.20
2019-06-15T08:15:06.409Z,2.40
2019-06-15T08:17:10.371Z,2.40
2019-06-15T08:19:13.887Z,2.57
2019-06-15T08:21:17.514Z,3.17
2019-06-15T08:23:21.108Z,2.93
2019-06-15T08:25:24.940Z,2.20
2019-06-15T08:27:28.489Z,2.33
2019-06-15T08:29:32.332Z,2.90
2019-06-15T08:31:36.180Z,1.90
2019-06-15T08:33:40.037Z,1.80
2019-06-15T08:35:43.580Z,2.40
2019-06-15T08:37:47.443Z,1.60
2019-06-15T08:39:51.352Z,1.47
2019-06-15T08:41:57.006Z,2.23
2019-06-15T08:44:00.905Z,2.20
2019-06-15T08:46:04.921Z,1.80
2019-06-15T08:48:08.729Z,1.90
2019-06-15T08:50:12.825Z,1.30
2019-06-15T08:52:16.345Z,1.10
2019-06-15T08:54:20.244Z,1.30
2019-06-15T08:56:23.790Z,0.90
2019-06-15T08:58:27.637Z,1.13
2019-06-15T09:00:31.446Z,1.20
2019-06-15T09:02:34.979Z,1.13
2019-06-15T09:04:38.517Z,1.27
2019-06-15T09:06:42.065Z,1.20
2019-06-15T09:08:45.945Z,1.40
2019-06-15T09:10:49.824Z,1.40
2019-06-15T09:12:53.747Z,1.57
2019-06-15T09:14:57.665Z,1.33
2019-06-15T09:17:01.546Z,1.70
2019-06-15T09:19:05.465Z,1.70
2019-06-15T09:21:09.047Z,1.93
2019-06-15T09:23:12.966Z,1.33
2019-06-15T09:25:16.505Z,1.70
2019-06-15T09:27:20.371Z,1.50
2019-06-15T09:29:24.267Z,1.60
2019-06-15T09:31:28.158Z,1.50
2019-06-15T09:33:31.969Z,1.37
2019-06-15T09:35:35.873Z,1.53
2019-06-15T09:37:39.690Z,1.10
2019-06-15T09:39:43.227Z,1.50
2019-06-15T09:41:46.778Z,1.70
2019-06-15T09:43:50.566Z,1.20
2019-06-15T09:45:54.389Z,1.10
2019-06-15T09:47:58.285Z,1.07
2019-06-15T09:50:01.826Z,1.20
2019-06-15T09:52:05.688Z,1.30
2019-06-15T09:54:09.215Z,1.40
2019-06-15T09:56:13.087Z,1.20
2019-06-15T09:58:16.676Z,1.20
2019-06-15T10:00:20.898Z,1.10
2019-06-15T10:02:24.420Z,1.40
2019-06-15T10:04:27.969Z,1.53
2019-06-15T10:06:31.795Z,1.50
2019-06-15T10:08:37.414Z,2.23
2019-06-15T10:10:40.610Z,1.67
2019-06-15T10:12:44.447Z,1.37
2019-06-15T10:14:48.373Z,1.37
2019-06-15T10:16:52.232Z,1.50
2019-06-15T10:18:56.147Z,1.57
2019-06-15T10:21:00.064Z,1.70
2019-06-15T10:23:03.961Z,1.70
2019-06-15T10:25:08.236Z,1.80
2019-06-15T10:27:12.092Z,1.53
2019-06-15T10:29:16.009Z,1.30
2019-06-15T10:31:19.888Z,1.23
2019-06-15T10:33:23.690Z,1.60
2019-06-15T10:35:27.483Z,1.17
2019-06-15T10:37:31.107Z,1.00
2019-06-15T10:39:34.990Z,1.37
2019-06-15T10:41:38.794Z,1.50
2019-06-15T10:43:42.710Z,1.27
2019-06-15T10:45:46.247Z,1.00
2019-06-15T10:47:50.125Z,1.20
2019-06-15T10:49:54.017Z,1.10
2019-06-15T10:51:57.808Z,1.30
2019-06-15T10:54:01.725Z,1.47
2019-06-15T10:56:05.632Z,1.00
2019-06-15T10:58:09.423Z,1.00
2019-06-15T11:00:14.280Z,1.20
2019-06-15T11:02:18.188Z,1.10
2019-06-15T11:04:21.987Z,1.10
2019-06-15T11:06:25.954Z,1.10
2019-06-15T11:08:29.876Z,1.20
2019-06-15T11:11:06.776Z,1.40
2019-06-15T11:13:10.353Z,1.07
2019-06-15T11:15:14.223Z,1.00
2019-06-15T11:17:18.454Z,1.33
2019-06-15T11:19:21.984Z,0.90
2019-06-15T11:21:25.553Z,0.90
2019-06-15T11:23:29.396Z,0.90
2019-06-15T11:25:33.263Z,0.90
2019-06-15T11:27:36.846Z,1.27
2019-06-15T11:29:40.662Z,1.10
2019-06-15T11:31:44.588Z,0.87
2019-06-15T11:33:48.480Z,0.90
2019-06-15T11:35:52.009Z,1.00
2019-06-15T11:37:55.546Z,1.43
2019-06-15T11:39:59.372Z,1.00
2019-06-15T11:42:02.913Z,1.20
2019-06-15T11:44:06.887Z,1.10
2019-06-15T11:46:10.789Z,1.00
2019-06-15T11:48:14.696Z,1.07
2019-06-15T11:50:18.718Z,1.00
2019-06-15T11:52:22.253Z,1.70
2019-06-15T11:54:26.099Z,1.40
2019-06-15T11:56:29.996Z,1.30
2019-06-15T11:58:33.528Z,1.20
2019-06-15T12:00:41.819Z,1.40
2019-06-15T12:02:45.628Z,1.17
2019-06-15T12:04:58.096Z,1.27
2019-06-15T12:06:55.170Z,1.40
2019-06-15T12:08:58.970Z,2.27
2019-06-15T12:11:02.866Z,1.20
2019-06-15T12:13:06.680Z,1.10
2019-06-15T12:15:10.478Z,1.10
2019-06-15T12:17:14.020Z,1.63
2019-06-15T12:19:17.877Z,0.97
2019-06-15T12:21:21.422Z,1.20
2019-06-15T12:23:25.304Z,1.27
2019-06-15T12:25:29.192Z,1.27
2019-06-15T12:27:33.094Z,1.00
2019-06-15T12:29:36.898Z,1.10
2019-06-15T12:31:40.806Z,2.37
2019-06-15T12:33:44.616Z,1.13
2019-06-15T12:35:48.262Z,1.30
2019-06-15T12:37:52.111Z,1.43
2019-06-15T12:39:55.913Z,1.10
2019-06-15T12:41:59.462Z,1.30
2019-06-15T12:44:03.385Z,1.10
2019-06-15T12:46:07.009Z,1.60
2019-06-15T12:48:11.086Z,18.53
2019-06-15T12:50:14.702Z,1.80
2019-06-15T12:52:18.562Z,1.10
2019-06-15T12:54:22.427Z,1.10
2019-06-15T12:56:25.957Z,1.80
2019-06-15T12:58:29.832Z,1.47
2019-06-15T13:00:36.708Z,1.67
2019-06-15T13:02:40.248Z,1.40
2019-06-15T13:04:44.117Z,1.70
2019-06-15T13:06:48.014Z,1.43
2019-06-15T13:08:51.560Z,1.20
2019-06-15T13:10:55.410Z,1.40
2019-06-15T13:12:59.321Z,1.60
2019-06-15T13:15:03.429Z,1.23
2019-06-15T13:17:06.963Z,1.50
2019-06-15T13:19:10.500Z,1.20
2019-06-15T13:21:14.444Z,1.40
2019-06-15T13:23:18.339Z,1.20
2019-06-15T13:25:22.152Z,1.50
2019-06-15T13:27:26.052Z,1.40
2019-06-15T13:29:29.940Z,1.50
2019-06-15T13:31:33.748Z,1.33
2019-06-15T13:33:37.660Z,1.50
2019-06-15T13:35:41.212Z,1.60
2019-06-15T13:37:44.826Z,1.50
2019-06-15T13:39:48.667Z,1.47
2019-06-15T13:41:52.194Z,1.63
2019-06-15T13:43:56.070Z,1.40
2019-06-15T13:45:59.627Z,1.80
2019-06-15T13:48:03.180Z,1.40
2019-06-15T13:50:10.296Z,1.83
2019-06-15T13:52:14.146Z,1.53
2019-06-15T13:54:18.046Z,1.40
2019-06-15T13:56:22.064Z,1.30
2019-06-15T13:58:25.968Z,1.43
2019-06-15T14:00:29.477Z,1.30
2019-06-15T14:02:33.355Z,1.90
2019-06-15T14:04:36.896Z,1.40
2019-06-15T14:06:40.747Z,1.27
2019-06-15T14:08:44.693Z,1.30
2019-06-15T14:10:48.782Z,1.50
2019-06-15T14:12:52.592Z,1.20
2019-06-15T14:14:56.477Z,1.10
2019-06-15T14:17:00.006Z,1.47
2019-06-15T14:19:03.544Z,1.50
2019-06-15T14:21:07.480Z,1.40
2019-06-15T14:23:11.282Z,1.30
2019-06-15T14:25:15.092Z,1.30
2019-06-15T14:27:18.635Z,1.30
2019-06-15T14:29:22.156Z,1.13
2019-06-15T14:31:25.989Z,1.40
2019-06-15T14:33:29.523Z,1.50
2019-06-15T14:35:33.388Z,1.47
2019-06-15T14:37:37.195Z,1.53
2019-06-15T14:39:40.708Z,1.70
2019-06-15T14:41:47.523Z,1.63
2019-06-15T14:43:50.203Z,2.00
2019-06-15T14:45:59.606Z,1.80
2019-06-15T14:47:59.289Z,1.60
2019-06-15T14:50:03.413Z,1.30
2019-06-15T14:52:07.322Z,1.43
2019-06-15T14:54:11.198Z,1.40
2019-06-15T14:56:16.078Z,1.40
2019-06-15T14:58:19.612Z,1.50
2019-06-15T15:00:23.959Z,1.33
2019-06-15T15:02:27.850Z,1.57
2019-06-15T15:04:31.370Z,1.23
2019-06-15T15:06:36.847Z,1.30
2019-06-15T15:08:40.902Z,1.60
2019-06-15T15:10:44.782Z,1.20
2019-06-15T15:12:48.346Z,1.50
2019-06-15T15:14:51.894Z,1.33
2019-06-15T15:16:56.987Z,1.43
2019-06-15T15:19:00.940Z,1.40
2019-06-15T15:21:06.738Z,1.50
2019-06-15T15:23:10.105Z,1.50
2019-06-15T15:25:16.904Z,1.70
2019-06-15T15:27:20.679Z,1.30
2019-06-15T15:29:26.843Z,1.53
2019-06-15T15:31:29.845Z,1.60
2019-06-15T15:33:36.001Z,1.70
2019-06-15T15:35:39.238Z,1.73
2019-06-15T15:37:43.148Z,1.70
2019-06-15T15:39:47.029Z,1.60
2019-06-15T15:41:50.956Z,1.57
2019-06-15T15:43:54.856Z,1.60
2019-06-15T15:45:58.786Z,1.80
2019-06-15T15:48:03.178Z,1.95
2019-06-15T15:50:10.660Z,1.42
2019-06-15T15:52:16.991Z,1.70
2019-06-15T15:54:20.945Z,1.70
2019-06-15T15:56:24.477Z,1.25
2019-06-15T15:58:28.352Z,1.40
2019-06-15T16:00:34.155Z,1.70
2019-06-15T16:02:51.902Z,1.50
2019-06-15T16:04:46.964Z,1.42
2019-06-15T16:06:51.132Z,1.70
2019-06-15T16:08:56.945Z,1.70
2019-06-15T16:11:00.591Z,1.62
2019-06-15T16:13:06.492Z,1.62
2019-06-15T16:15:11.389Z,1.65
2019-06-15T16:17:15.260Z,1.50
2019-06-15T16:19:19.168Z,1.62
2019-06-15T16:21:23.080Z,1.42
2019-06-15T16:23:26.878Z,1.60
2019-06-15T16:25:30.782Z,1.75
2019-06-15T16:27:36.879Z,1.70
2019-06-15T16:29:40.240Z,1.65
2019-06-15T16:31:46.088Z,1.50
2019-06-15T16:33:49.685Z,1.90
2019-06-15T16:35:53.600Z,1.70
2019-06-15T16:37:57.594Z,1.60
2019-06-15T16:40:01.114Z,1.47
2019-06-15T16:42:06.571Z,1.40
2019-06-15T16:44:10.444Z,1.50
2019-06-15T16:46:17.124Z,1.60
2019-06-15T16:48:21.010Z,1.70
2019-06-15T16:50:26.530Z,1.45
2019-06-15T16:52:30.563Z,1.70
2019-06-15T16:54:36.142Z,1.60
2019-06-15T16:56:39.355Z,1.90
2019-06-15T16:58:43.449Z,1.90
2019-06-15T17:00:47.980Z,1.70
2019-06-15T17:02:52.465Z,1.62
2019-06-15T17:04:56.971Z,1.60
2019-06-15T17:07:00.668Z,1.70
2019-06-15T17:09:06.106Z,1.87
2019-06-15T17:11:09.922Z,1.80
2019-06-15T17:13:16.004Z,1.70
2019-06-15T17:15:19.369Z,1.70
2019-06-15T17:17:23.279Z,1.80
2019-06-15T17:19:27.169Z,2.07
2019-06-15T17:21:30.718Z,1.70
2019-06-15T17:23:34.584Z,1.77
2019-06-15T17:25:38.396Z,1.80
2019-06-15T17:27:42.296Z,1.73
2019-06-15T17:29:46.875Z,1.77
2019-06-15T17:31:50.901Z,1.97
2019-06-15T17:33:56.430Z,1.73
2019-06-15T17:36:03.319Z,1.90
2019-06-15T17:38:06.006Z,1.77
2019-06-15T17:40:09.912Z,1.60
2019-06-15T17:42:16.270Z,2.10
2019-06-15T17:44:19.464Z,1.70
2019-06-15T17:46:22.995Z,1.90
2019-06-15T17:48:26.869Z,2.03
2019-06-15T17:50:39.977Z,2.20
2019-06-15T17:52:46.659Z,1.80
2019-06-15T17:54:49.452Z,1.80
2019-06-15T17:56:53.345Z,2.00
2019-06-15T17:58:56.855Z,2.00
2019-06-15T18:01:00.386Z,1.57
2019-06-15T18:03:06.753Z,1.83
2019-06-15T18:05:09.892Z,1.63
2019-06-15T18:07:13.793Z,1.80
2019-06-15T18:09:17.689Z,1.97
2019-06-15T18:11:21.816Z,2.07
2019-06-15T18:13:25.727Z,1.90
2019-06-15T18:15:29.623Z,2.20
2019-06-15T18:17:33.505Z,2.37
2019-06-15T18:19:37.341Z,2.10
2019-06-15T18:21:41.265Z,2.10
2019-06-15T18:23:46.481Z,2.30
2019-06-15T18:25:50.575Z,1.70
2019-06-15T18:27:54.095Z,2.10
2019-06-15T18:29:57.625Z,2.30
2019-06-15T18:32:01.261Z,1.87
2019-06-15T18:34:10.305Z,1.97
2019-06-15T18:36:10.615Z,2.00
2019-06-15T18:38:14.449Z,2.60
2019-06-15T18:40:18.465Z,2.10
2019-06-15T18:42:22.327Z,2.30
2019-06-15T18:44:26.873Z,2.30
2019-06-15T18:46:30.859Z,1.80
2019-06-15T18:48:36.050Z,2.10
2019-06-15T18:50:42.603Z,2.57
2019-06-15T18:52:46.145Z,1.90
2019-06-15T18:54:49.672Z,2.60
2019-06-15T18:56:53.564Z,2.23
2019-06-15T18:58:57.464Z,1.97
2019-06-15T19:01:01.392Z,2.30
2019-06-15T19:03:06.822Z,2.50
2019-06-15T19:05:11.228Z,3.07
2019-06-15T19:07:16.226Z,2.30
2019-06-15T19:09:20.259Z,2.87
2019-06-15T19:11:24.079Z,2.27
2019-06-15T19:13:27.878Z,2.40
2019-06-15T19:15:31.590Z,2.30
2019-06-15T19:17:37.137Z,2.40
2019-06-15T19:19:41.143Z,2.73
2019-06-15T19:21:46.173Z,2.27
2019-06-15T19:23:50.104Z,2.53
2019-06-15T19:25:53.620Z,3.33
2019-06-15T19:27:57.175Z,3.23
2019-06-15T19:30:01.063Z,3.10
2019-06-15T19:32:07.908Z,3.37
2019-06-15T19:34:10.500Z,3.47
2019-06-15T19:36:14.335Z,3.40
2019-06-15T19:38:18.225Z,3.00
2019-06-15T19:40:22.113Z,2.93
2019-06-15T19:42:26.084Z,2.90
2019-06-15T19:44:29.921Z,2.80
2019-06-15T19:46:36.414Z,2.63
2019-06-15T19:48:39.382Z,3.20
2019-06-15T19:50:43.210Z,2.87
2019-06-15T19:52:46.816Z,2.80
2019-06-15T19:54:50.699Z,3.33
2019-06-15T19:56:56.462Z,3.20
2019-06-15T19:59:00.133Z,3.60
2019-06-15T20:01:06.526Z,2.90
2019-06-15T20:03:09.429Z,3.00
2019-06-15T20:05:13.593Z,2.93
2019-06-15T20:07:17.409Z,2.90
2019-06-15T20:09:20.963Z,2.83
2019-06-15T20:11:24.903Z,3.20
2019-06-15T20:13:28.817Z,3.20
2019-06-15T20:15:32.709Z,2.80
2019-06-15T20:17:36.884Z,2.93
2019-06-15T20:19:40.806Z,3.10
2019-06-15T20:21:46.313Z,3.33
2019-06-15T20:23:50.413Z,3.23
2019-06-15T20:25:55.874Z,3.20
2019-06-15T20:27:59.626Z,2.83
2019-06-15T20:30:06.265Z,3.40
2019-06-15T20:32:10.311Z,3.40
2019-06-15T20:34:16.490Z,3.40
2019-06-15T20:36:19.469Z,3.17
2019-06-15T20:38:23.353Z,3.77
2019-06-15T20:40:29.103Z,3.20
2019-06-15T20:42:32.633Z,3.40
2019-06-15T20:44:36.823Z,3.37
2019-06-15T20:46:40.723Z,3.60
2019-06-15T20:48:46.882Z,3.27
2019-06-15T20:50:50.271Z,3.30
2019-06-15T20:52:56.460Z,3.30
2019-06-15T20:54:59.349Z,3.60
2019-06-15T20:57:06.250Z,3.20
2019-06-15T20:59:09.379Z,3.50
2019-06-15T21:01:13.283Z,3.40
2019-06-15T21:03:17.191Z,3.10
2019-06-15T21:05:33.667Z,2.90
2019-06-15T21:07:26.903Z,3.30
2019-06-15T21:09:30.843Z,3.40
2019-06-15T21:11:36.215Z,3.33
2019-06-15T21:13:40.287Z,4.10
2019-06-15T21:15:47.470Z,3.40
2019-06-15T21:17:51.690Z,3.07
2019-06-15T21:19:55.594Z,3.63
2019-06-15T21:21:59.395Z,3.60
2019-06-15T21:24:02.956Z,3.63
2019-06-15T21:26:06.996Z,3.00
2019-06-15T21:28:10.906Z,3.57
2019-06-15T21:30:16.564Z,3.77
2019-06-15T21:32:20.144Z,3.30
2019-06-15T21:34:26.412Z,3.30
2019-06-15T21:36:29.508Z,3.30
2019-06-15T21:38:35.925Z,3.23
2019-06-15T21:40:38.680Z,3.30
2019-06-15T21:42:42.229Z,3.30
2019-06-15T21:44:46.954Z,2.90
2019-06-15T21:46:50.684Z,3.30
2019-06-15T21:48:56.349Z,3.40
2019-06-15T21:51:00.110Z,3.57
2019-06-15T21:53:06.654Z,3.67
2019-06-15T21:55:09.981Z,3.50
2019-06-15T21:57:15.953Z,3.33
2019-06-15T21:59:19.108Z,3.43
2019-06-15T22:01:31.910Z,3.60
2019-06-15T22:03:36.818Z,4.20
2019-06-15T22:05:40.457Z,3.77
2019-06-15T22:07:44.360Z,3.40
2019-06-15T22:09:48.169Z,3.13
2019-06-15T22:11:52.077Z,3.20
2019-06-15T22:13:57.114Z,3.53
2019-06-15T22:16:01.115Z,3.90
2019-06-15T22:18:06.827Z,2.97
2019-06-15T22:20:12.324Z,2.70
2019-06-15T22:22:16.522Z,3.10
2019-06-15T22:24:20.420Z,3.77
2019-06-15T22:26:26.551Z,3.27
2019-06-15T22:28:29.462Z,3.03
2019-06-15T22:30:33.014Z,3.07
2019-06-15T22:32:36.866Z,3.30
2019-06-15T22:34:40.763Z,3.00
2019-06-15T22:36:44.658Z,3.47
2019-06-15T22:38:48.570Z,3.33
2019-06-15T22:40:52.394Z,3.73
2019-06-15T22:42:56.378Z,3.00
2019-06-15T22:45:00.208Z,2.73
2019-06-15T22:47:03.735Z,3.20
2019-06-15T22:49:07.272Z,2.90
2019-06-15T22:51:11.172Z,3.17
2019-06-15T22:53:16.479Z,3.23
2019-06-15T22:55:20.553Z,3.23
2019-06-15T22:57:26.123Z,3.53
2019-06-15T22:59:29.877Z,3.00
2019-06-15T23:01:33.424Z,3.30
2019-06-15T23:03:37.277Z,2.70
2019-06-15T23:05:41.181Z,3.20
2019-06-15T23:07:47.280Z,3.10
2019-06-15T23:09:50.828Z,3.17
2019-06-15T23:11:56.593Z,3.33
2019-06-15T23:13:59.643Z,2.90
2019-06-15T23:16:03.485Z,3.20
2019-06-15T23:18:07.370Z,3.47
2019-06-15T23:20:11.501Z,3.30
2019-06-15T23:22:17.137Z,3.03
2019-06-15T23:24:20.852Z,3.77
2019-06-15T23:26:24.852Z,3.63
2019-06-15T23:28:28.738Z,3.37
2019-06-15T23:30:32.544Z,3.30
2019-06-15T23:32:36.350Z,3.47
2019-06-15T23:34:40.259Z,3.30
2019-06-15T23:36:56.758Z,3.43
2019-06-15T23:38:53.698Z,3.20
2019-06-15T23:40:57.504Z,3.30
2019-06-15T23:43:01.415Z,2.97
2019-06-15T23:45:06.995Z,3.20
2019-06-15T23:47:10.875Z,3.03
2019-06-15T23:49:16.387Z,3.40
2019-06-15T23:51:20.012Z,3.40
2019-06-15T23:53:25.949Z,3.87
2019-06-15T23:55:29.454Z,3.90
2019-06-15T23:57:33.363Z,3.67
2019-06-15T23:59:37.370Z,3.27
